Time;durP1;ratioP1;P1;durP2;ratioP2;P2;SDS_P1;SDS_P2;PMS_P1;PMS_P2;Temp;Humidity;BMP_temperature;BMP_pressure;BME280_temperature;BME280_humidity;BME280_pressure;Samples;Min_cycle;Max_cycle;Signal;HPM_P1;HPM_P2
2020/12/10 00:00:58;;;;;;;40.43;15.87;;;2.60;95.70;;;;;;5063180;28;20205;-74
2020/12/10 00:03:27;;;;;;;38.95;17.10;;;2.60;95.60;;;;;;5038620;28;20427;-72
2020/12/10 00:05:52;;;;;;;39.78;15.45;;;2.60;95.60;;;;;;5034514;28;20177;-73
2020/12/10 00:08:18;;;;;;;44.80;16.07;;;2.60;95.60;;;;;;5019345;28;20545;-74
2020/12/10 00:10:44;;;;;;;37.30;17.33;;;2.50;95.20;;;;;;5031829;28;20633;-72
2020/12/10 00:13:09;;;;;;;36.67;14.03;;;2.60;95.40;;;;;;5029198;28;20284;-75
2020/12/10 00:15:35;;;;;;;32.97;15.17;;;2.60;95.30;;;;;;5020656;28;20186;-75
2020/12/10 00:18:01;;;;;;;41.57;15.60;;;2.60;95.30;;;;;;5031518;28;20247;-76
2020/12/10 00:20:27;;;;;;;40.53;16.30;;;2.70;95.40;;;;;;5033182;28;20470;-75
2020/12/10 00:22:53;;;;;;;38.77;16.73;;;2.70;95.40;;;;;;5033545;28;20578;-74
2020/12/10 00:25:18;;;;;;;44.80;16.90;;;2.70;95.50;;;;;;5031480;28;20196;-78
2020/12/10 00:27:44;;;;;;;37.30;14.37;;;2.70;95.50;;;;;;5031724;28;20709;-76
2020/12/10 00:30:10;;;;;;;46.40;16.40;;;2.80;95.60;;;;;;5030167;28;20236;-77
2020/12/10 00:32:39;;;;;;;35.65;14.75;;;2.80;95.50;;;;;;5030112;28;20239;-71
2020/12/10 00:35:09;;;;;;;42.17;16.98;;;2.80;95.30;;;;;;5013257;28;20540;-73
2020/12/10 00:37:36;;;;;;;40.78;15.38;;;2.80;95.30;;;;;;5032779;28;20197;-74
2020/12/10 00:40:04;;;;;;;39.47;15.27;;;2.80;95.50;;;;;;5033448;28;20197;-74
2020/12/10 00:42:30;;;;;;;38.38;16.00;;;2.70;95.50;;;;;;5038549;28;20185;-74
2020/12/10 00:44:55;;;;;;;35.73;16.90;;;2.80;95.50;;;;;;5041967;28;20612;-73
2020/12/10 00:47:21;;;;;;;40.93;16.50;;;2.80;95.50;;;;;;5042931;28;20443;-73
2020/12/10 00:49:47;;;;;;;32.93;14.33;;;2.70;95.50;;;;;;5038248;28;20205;-75
2020/12/10 00:52:14;;;;;;;38.87;16.63;;;2.80;95.60;;;;;;5033982;28;20215;-75
2020/12/10 00:54:41;;;;;;;40.20;15.75;;;2.80;95.40;;;;;;5033857;28;20439;-73
2020/12/10 00:57:12;;;;;;;36.63;15.00;;;2.80;95.40;;;;;;5033039;28;20188;-71
2020/12/10 00:59:39;;;;;;;37.22;15.30;;;2.80;95.20;;;;;;5032591;28;20197;-73
2020/12/10 01:02:06;;;;;;;38.30;15.63;;;2.80;94.80;;;;;;5032877;28;20220;-72
2020/12/10 01:04:32;;;;;;;49.40;15.85;;;2.80;94.50;;;;;;5032512;28;20218;-73
2020/12/10 01:06:58;;;;;;;36.60;15.33;;;2.80;94.50;;;;;;5032599;28;20201;-74
2020/12/10 01:09:24;;;;;;;42.03;16.80;;;2.70;94.50;;;;;;5033482;28;20224;-75
2020/12/10 01:11:49;;;;;;;36.17;15.37;;;2.70;94.80;;;;;;5035404;28;20216;-73
2020/12/10 01:14:15;;;;;;;32.37;14.40;;;2.70;94.80;;;;;;5034007;28;20465;-74
2020/12/10 01:16:41;;;;;;;38.87;15.27;;;2.70;94.60;;;;;;5013406;28;20463;-72
2020/12/10 01:19:07;;;;;;;34.47;14.13;;;2.70;94.40;;;;;;5027237;28;20755;-72
2020/12/10 01:21:34;;;;;;;41.97;16.13;;;2.60;94.50;;;;;;5023380;28;20254;-75
2020/12/10 01:24:01;;;;;;;38.38;15.95;;;2.60;94.40;;;;;;5026067;28;20203;-71
2020/12/10 01:26:30;;;;;;;44.15;15.38;;;2.60;94.40;;;;;;5032678;28;20177;-72
2020/12/10 01:28:56;;;;;;;35.53;14.48;;;2.60;94.50;;;;;;5034872;28;20216;-73
2020/12/10 01:31:22;;;;;;;37.72;15.25;;;2.50;94.60;;;;;;5025885;28;20217;-72
2020/12/10 01:33:47;;;;;;;37.53;13.97;;;2.50;94.40;;;;;;5034516;28;20184;-72
2020/12/10 01:36:19;;;;;;;34.53;14.70;;;2.50;94.30;;;;;;5021814;28;20276;-73
2020/12/10 01:38:45;;;;;;;37.78;14.82;;;2.50;93.90;;;;;;5048876;28;20207;-75
2020/12/10 01:41:11;;;;;;;29.50;12.80;;;2.50;93.50;;;;;;5025701;28;20693;-74
2020/12/10 01:43:36;;;;;;;38.10;14.47;;;2.40;93.60;;;;;;5015575;28;20502;-72
2020/12/10 01:46:02;;;;;;;36.67;15.37;;;2.50;93.70;;;;;;5035823;28;20968;-73
2020/12/10 01:48:29;;;;;;;33.33;13.90;;;2.50;93.70;;;;;;5032522;28;20428;-73
2020/12/10 01:50:55;;;;;;;33.45;14.05;;;2.40;93.30;;;;;;5031150;28;20213;-72
2020/12/10 01:53:20;;;;;;;32.63;13.77;;;2.30;92.80;;;;;;5032320;28;20197;-72
2020/12/10 01:55:46;;;;;;;31.83;14.57;;;2.20;92.60;;;;;;5030404;28;20178;-72
2020/12/10 01:58:12;;;;;;;36.97;14.00;;;2.20;92.60;;;;;;5030624;28;20181;-73
2020/12/10 02:00:38;;;;;;;31.57;15.07;;;2.20;92.70;;;;;;5031813;28;20193;-74
2020/12/10 02:03:03;;;;;;;38.93;14.73;;;2.30;92.80;;;;;;5032244;28;20284;-77
2020/12/10 02:05:29;;;;;;;35.70;14.60;;;2.30;93.50;;;;;;5020709;28;20199;-72
2020/12/10 02:07:55;;;;;;;32.63;13.23;;;2.30;93.60;;;;;;5016299;28;20190;-72
2020/12/10 02:10:20;;;;;;;35.40;15.03;;;2.40;93.90;;;;;;5032632;28;20201;-74
2020/12/10 02:12:46;;;;;;;30.27;14.40;;;2.50;93.80;;;;;;5031092;28;20220;-73
2020/12/10 02:15:12;;;;;;;33.97;13.87;;;2.50;93.70;;;;;;5016177;28;20180;-78
2020/12/10 02:17:38;;;;;;;36.90;15.93;;;2.60;93.70;;;;;;5019718;28;20662;-78
2020/12/10 02:20:05;;;;;;;38.20;16.27;;;2.60;93.70;;;;;;5035319;28;20490;-74
2020/12/10 02:22:31;;;;;;;33.38;13.98;;;2.50;93.70;;;;;;5046824;28;20304;-73
2020/12/10 02:24:57;;;;;;;34.70;14.83;;;2.50;93.80;;;;;;5036067;28;20548;-74
2020/12/10 02:27:23;;;;;;;37.97;16.15;;;2.60;93.90;;;;;;5037803;28;20231;-71
2020/12/10 02:29:49;;;;;;;38.73;15.80;;;2.50;94.20;;;;;;5026912;28;20263;-75
2020/12/10 02:32:14;;;;;;;41.57;15.33;;;2.50;94.40;;;;;;5020909;28;20565;-76
2020/12/10 02:34:40;;;;;;;33.80;15.77;;;2.60;94.50;;;;;;5036131;28;20195;-72
2020/12/10 02:37:06;;;;;;;35.40;14.33;;;2.60;94.40;;;;;;5040437;28;20566;-73
2020/12/10 02:39:31;;;;;;;36.40;14.63;;;2.70;94.40;;;;;;5026861;28;20209;-73
2020/12/10 02:41:57;;;;;;;35.50;15.40;;;2.60;94.30;;;;;;5030426;28;20556;-73
2020/12/10 02:44:23;;;;;;;40.90;15.20;;;2.60;94.30;;;;;;5027815;28;20348;-73
2020/12/10 02:46:48;;;;;;;41.33;15.53;;;2.60;94.30;;;;;;5022207;28;20243;-73
2020/12/10 02:49:14;;;;;;;34.77;15.00;;;2.70;94.10;;;;;;5037048;28;20567;-73
2020/12/10 02:51:43;;;;;;;44.47;16.77;;;2.70;93.80;;;;;;5030690;28;20217;-72
2020/12/10 02:54:09;;;;;;;39.63;16.88;;;2.60;93.80;;;;;;5029582;28;20265;-79
2020/12/10 02:56:35;;;;;;;43.40;17.25;;;2.60;93.90;;;;;;5015336;28;20193;-76
2020/12/10 02:59:01;;;;;;;36.00;15.20;;;2.50;94.20;;;;;;5032932;28;20272;-72
2020/12/10 03:01:27;;;;;;;42.43;16.63;;;2.50;94.40;;;;;;5028620;28;20206;-73
2020/12/10 03:03:52;;;;;;;44.43;18.20;;;2.50;94.50;;;;;;5028683;28;20185;-72
2020/12/10 03:06:18;;;;;;;37.00;16.60;;;2.50;94.60;;;;;;5014562;28;20205;-74
2020/12/10 03:08:44;;;;;;;43.73;17.73;;;2.50;94.70;;;;;;5017591;28;20277;-75
2020/12/10 03:11:10;;;;;;;35.53;14.90;;;2.50;94.70;;;;;;5019618;28;20209;-73
2020/12/10 03:13:35;;;;;;;34.20;15.57;;;2.50;94.60;;;;;;5019615;28;20581;-73
2020/12/10 03:16:01;;;;;;;42.43;16.57;;;2.50;94.60;;;;;;5016613;28;20186;-74
2020/12/10 03:18:27;;;;;;;39.80;15.67;;;2.50;94.50;;;;;;5017569;28;20174;-74
2020/12/10 03:20:53;;;;;;;43.40;18.42;;;2.50;94.30;;;;;;5017755;28;20230;-75
2020/12/10 03:23:19;;;;;;;43.63;16.93;;;2.40;94.30;;;;;;5015145;28;20205;-75
2020/12/10 03:25:45;;;;;;;43.42;17.05;;;2.40;94.40;;;;;;5019722;28;20431;-75
2020/12/10 03:28:11;;;;;;;38.63;16.80;;;2.40;94.40;;;;;;5034761;28;20269;-75
2020/12/10 03:30:37;;;;;;;46.47;19.77;;;2.40;94.50;;;;;;5034631;28;20456;-75
2020/12/10 03:33:03;;;;;;;46.40;18.10;;;2.40;94.40;;;;;;5034430;28;20540;-75
2020/12/10 03:35:28;;;;;;;40.70;15.43;;;2.40;94.60;;;;;;5034034;28;20185;-75
2020/12/10 03:37:54;;;;;;;39.93;16.27;;;2.40;94.70;;;;;;5033979;28;20420;-73
2020/12/10 03:40:20;;;;;;;44.10;18.63;;;2.50;94.60;;;;;;5032846;28;20216;-76
2020/12/10 03:42:46;;;;;;;40.90;15.77;;;2.50;94.30;;;;;;5036447;28;20208;-75
2020/12/10 03:45:12;;;;;;;44.87;17.00;;;2.50;93.90;;;;;;5034391;28;20816;-75
2020/12/10 03:47:38;;;;;;;47.20;18.30;;;2.40;93.80;;;;;;5032707;28;20189;-74
2020/12/10 03:50:05;;;;;;;41.93;16.23;;;2.40;94.10;;;;;;5032853;28;20443;-75
2020/12/10 03:52:31;;;;;;;42.35;16.60;;;2.40;94.20;;;;;;5032880;28;20240;-75
2020/12/10 03:54:57;;;;;;;40.83;18.07;;;2.40;94.40;;;;;;5032982;28;20761;-73
2020/12/10 03:57:23;;;;;;;43.03;17.17;;;2.40;94.30;;;;;;5031468;28;20420;-76
2020/12/10 03:59:48;;;;;;;45.90;18.47;;;2.40;94.30;;;;;;5031601;28;20443;-75
2020/12/10 04:02:14;;;;;;;52.67;20.27;;;2.40;94.30;;;;;;5032942;28;20439;-74
2020/12/10 04:04:40;;;;;;;50.67;19.33;;;2.40;94.10;;;;;;5032344;28;20211;-74
2020/12/10 04:07:05;;;;;;;49.77;17.77;;;2.30;94.20;;;;;;5032345;28;20200;-75
2020/12/10 04:09:31;;;;;;;38.60;15.67;;;2.30;94.30;;;;;;5032619;28;20232;-75
2020/12/10 04:11:57;;;;;;;43.20;18.07;;;2.30;94.40;;;;;;5032628;28;20891;-75
2020/12/10 04:14:23;;;;;;;47.67;19.50;;;2.30;94.60;;;;;;5032635;28;20676;-75
2020/12/10 04:16:48;;;;;;;43.63;18.00;;;2.30;94.80;;;;;;5032206;28;20185;-74
2020/12/10 04:19:14;;;;;;;47.60;17.33;;;2.30;94.70;;;;;;5032850;28;20263;-75
2020/12/10 04:21:40;;;;;;;46.47;19.23;;;2.40;94.80;;;;;;5032565;28;20238;-75
2020/12/10 04:24:05;;;;;;;51.73;18.87;;;2.40;95.00;;;;;;5032215;28;20189;-74
2020/12/10 04:26:31;;;;;;;43.17;17.70;;;2.40;95.00;;;;;;5032346;28;20189;-75
2020/12/10 04:28:57;;;;;;;44.57;18.50;;;2.40;95.10;;;;;;5033450;28;20184;-75
2020/12/10 04:31:23;;;;;;;37.13;16.70;;;2.40;95.10;;;;;;5031495;28;20274;-75
2020/12/10 04:33:48;;;;;;;40.33;17.53;;;2.50;95.10;;;;;;5033424;28;20189;-75
2020/12/10 04:36:14;;;;;;;43.77;16.50;;;2.50;94.90;;;;;;5030808;28;20260;-75
2020/12/10 04:38:40;;;;;;;59.03;20.90;;;2.50;94.80;;;;;;5025504;28;20182;-76
2020/12/10 04:41:07;;;;;;;43.70;17.00;;;2.50;94.70;;;;;;5026144;28;20201;-75
2020/12/10 04:43:33;;;;;;;45.83;18.77;;;2.40;94.70;;;;;;5035887;28;20235;-76
2020/12/10 04:46:04;;;;;;;44.80;18.00;;;2.40;94.90;;;;;;5035252;28;20255;-75
2020/12/10 04:48:32;;;;;;;54.95;19.50;;;2.40;95.30;;;;;;5033880;28;20181;-74
2020/12/10 04:51:03;;;;;;;38.25;16.55;;;2.40;95.60;;;;;;5032198;28;20205;-73
2020/12/10 04:53:29;;;;;;;46.20;19.52;;;2.40;95.80;;;;;;5031280;28;20271;-74
2020/12/10 04:56:02;;;;;;;48.57;19.40;;;2.40;95.80;;;;;;5029688;28;20196;-73
2020/12/10 04:58:28;;;;;;;46.10;17.70;;;2.40;95.80;;;;;;5020712;28;20428;-75
2020/12/10 05:01:00;;;;;;;48.13;18.13;;;2.40;95.90;;;;;;5010900;28;20214;-76
2020/12/10 05:03:26;;;;;;;50.47;18.40;;;2.50;96.00;;;;;;5012183;28;20208;-74
2020/12/10 05:05:53;;;;;;;46.88;18.30;;;2.50;95.80;;;;;;5010324;28;20243;-75
2020/12/10 05:08:39;;;;;;;46.47;18.40;;;2.50;95.60;;;;;;5011345;28;20200;-75
2020/12/10 05:11:04;;;;;;;48.40;18.00;;;2.40;95.40;;;;;;5019786;28;20312;-73
2020/12/10 05:13:30;;;;;;;49.40;19.67;;;2.40;95.10;;;;;;5033931;28;20241;-73
2020/12/10 05:15:56;;;;;;;51.53;18.57;;;2.30;95.10;;;;;;5031781;28;20343;-76
2020/12/10 05:18:22;;;;;;;49.23;18.97;;;2.20;95.40;;;;;;5032228;28;20264;-76
2020/12/10 05:20:49;;;;;;;45.70;18.60;;;2.20;95.50;;;;;;5031296;28;20223;-73
2020/12/10 05:23:30;;;;;;;49.92;19.20;;;2.20;95.70;;;;;;5032359;28;20250;-74
2020/12/10 05:25:56;;;;;;;46.22;18.20;;;2.20;95.80;;;;;;5031850;28;20184;-75
2020/12/10 05:28:25;;;;;;;57.50;21.63;;;2.10;95.90;;;;;;5032779;28;20192;-75
2020/12/10 05:31:06;;;;;;;48.17;19.13;;;2.20;96.00;;;;;;5031871;28;20205;-75
2020/12/10 05:33:33;;;;;;;43.70;16.83;;;2.10;96.10;;;;;;5045150;28;20332;-73
2020/12/10 05:36:09;;;;;;;49.05;20.25;;;2.10;96.20;;;;;;5043253;28;20196;-74
2020/12/10 05:38:51;;;;;;;47.38;20.50;;;2.10;96.30;;;;;;5046601;28;20219;-74
2020/12/10 05:41:19;;;;;;;51.05;18.08;;;2.00;96.40;;;;;;5048869;28;20831;-74
2020/12/10 05:43:45;;;;;;;59.42;21.25;;;2.00;96.40;;;;;;5033993;28;20295;-74
2020/12/10 05:46:25;;;;;;;53.00;19.97;;;2.00;96.60;;;;;;5031305;28;20201;-74
2020/12/10 05:48:52;;;;;;;47.05;18.10;;;2.00;96.70;;;;;;5036519;28;20416;-74
2020/12/10 05:51:23;;;;;;;48.63;19.58;;;2.00;96.60;;;;;;5051005;28;20225;-75
2020/12/10 05:53:50;;;;;;;47.90;19.13;;;2.10;96.60;;;;;;5029873;28;20719;-75
2020/12/10 05:56:17;;;;;;;51.75;19.95;;;2.10;96.50;;;;;;5011300;28;20962;-75
2020/12/10 05:58:53;;;;;;;45.22;19.35;;;2.10;96.40;;;;;;5043871;28;20530;-75
2020/12/10 06:01:33;;;;;;;52.55;20.73;;;2.10;96.00;;;;;;5011528;28;20562;-75
2020/12/10 06:04:00;;;;;;;57.88;18.35;;;2.10;95.80;;;;;;5009928;28;20189;-76
2020/12/10 06:06:28;;;;;;;52.88;19.48;;;2.10;95.80;;;;;;5010737;28;20182;-74
2020/12/10 06:09:03;;;;;;;47.83;18.23;;;2.10;95.60;;;;;;5009866;28;20277;-75
2020/12/10 06:11:30;;;;;;;45.95;18.45;;;2.10;95.40;;;;;;5009695;28;20213;-75
2020/12/10 06:14:08;;;;;;;39.13;17.58;;;2.00;95.30;;;;;;5011222;28;20573;-75
2020/12/10 06:16:35;;;;;;;43.33;17.75;;;2.00;95.50;;;;;;5009697;28;20763;-75
2020/12/10 06:19:06;;;;;;;47.25;17.30;;;2.00;95.60;;;;;;5012483;28;20192;-74
2020/12/10 06:21:44;;;;;;;43.58;17.00;;;2.00;95.50;;;;;;5011587;28;20678;-75
2020/12/10 06:24:25;;;;;;;34.60;14.75;;;2.10;95.60;;;;;;5013077;28;20223;-74
2020/12/10 06:26:59;;;;;;;40.10;15.70;;;2.20;95.30;;;;;;5045808;28;20205;-75
2020/12/10 06:29:24;;;;;;;36.78;14.73;;;2.10;94.70;;;;;;5050272;28;20197;-74
2020/12/10 06:32:14;;;;;;;38.77;15.23;;;2.20;94.50;;;;;;5029482;28;20211;-74
2020/12/10 06:34:45;;;;;;;38.92;16.35;;;2.20;94.30;;;;;;5030028;28;20259;-76
2020/12/10 06:37:21;;;;;;;42.45;16.92;;;2.20;94.30;;;;;;5028648;28;20638;-76
2020/12/10 06:39:49;;;;;;;35.15;17.98;;;2.20;94.30;;;;;;5030412;28;20220;-74
2020/12/10 06:42:15;;;;;;;39.15;15.23;;;2.20;94.60;;;;;;5035372;28;20200;-75
2020/12/10 06:44:41;;;;;;;46.43;17.33;;;2.30;94.60;;;;;;5031304;28;20276;-76
2020/12/10 06:47:07;;;;;;;47.25;17.52;;;2.30;94.50;;;;;;5023121;28;20217;-76
2020/12/10 06:49:37;;;;;;;37.65;16.23;;;2.40;94.40;;;;;;5014052;28;20205;-74
2020/12/10 06:52:11;;;;;;;36.13;15.60;;;2.30;94.20;;;;;;5013107;28;20250;-75
2020/12/10 06:55:02;;;;;;;36.00;15.05;;;2.30;94.30;;;;;;5009960;28;20590;-76
2020/12/10 06:57:48;;;;;;;49.95;17.48;;;2.30;94.40;;;;;;5008621;28;20189;-77
2020/12/10 07:00:38;;;;;;;40.85;16.52;;;2.30;94.50;;;;;;5011265;28;20205;-76
2020/12/10 07:03:13;;;;;;;50.50;19.10;;;2.20;94.70;;;;;;5022653;28;20184;-76
2020/12/10 07:05:39;;;;;;;39.60;16.98;;;2.20;94.90;;;;;;5028418;28;20223;-75
2020/12/10 07:08:09;;;;;;;41.37;17.70;;;2.20;95.20;;;;;;5030112;28;20185;-76
2020/12/10 07:10:44;;;;;;;42.72;16.50;;;2.20;95.40;;;;;;5028501;28;20451;-74
2020/12/10 07:13:10;;;;;;;46.28;16.73;;;2.30;95.40;;;;;;5028633;28;20243;-76
2020/12/10 07:15:36;;;;;;;38.88;16.30;;;2.40;95.10;;;;;;5029094;28;20189;-76
2020/12/10 07:18:04;;;;;;;43.08;16.02;;;2.40;94.70;;;;;;5028722;28;20185;-76
2020/12/10 07:20:32;;;;;;;45.65;19.67;;;2.40;94.70;;;;;;5028125;28;20213;-75
2020/12/10 07:22:59;;;;;;;43.08;17.83;;;2.40;94.70;;;;;;5028714;28;20228;-75
2020/12/10 07:25:26;;;;;;;51.65;18.55;;;2.50;94.50;;;;;;5029588;28;20193;-76
2020/12/10 07:27:52;;;;;;;47.38;17.63;;;2.50;94.50;;;;;;5030018;28;20315;-76
2020/12/10 07:30:19;;;;;;;43.90;16.70;;;2.50;94.30;;;;;;5030437;28;21139;-75
2020/12/10 07:32:46;;;;;;;44.13;18.23;;;2.40;94.20;;;;;;5030654;28;20758;-76
2020/12/10 07:35:13;;;;;;;42.05;17.67;;;2.40;94.30;;;;;;5032201;28;20228;-76
2020/12/10 07:37:39;;;;;;;49.58;17.23;;;2.40;94.40;;;;;;5037080;28;20186;-76
2020/12/10 07:40:12;;;;;;;42.63;17.35;;;2.30;94.40;;;;;;5038638;28;20578;-74
2020/12/10 07:42:38;;;;;;;43.33;15.75;;;2.40;94.50;;;;;;5046193;28;20196;-76
2020/12/10 07:45:30;;;;;;;39.73;17.10;;;2.30;94.10;;;;;;5040586;28;20239;-76
2020/12/10 07:48:05;;;;;;;45.17;17.63;;;2.40;94.30;;;;;;5035110;28;20459;-75
2020/12/10 07:50:33;;;;;;;40.42;16.77;;;2.40;94.50;;;;;;5024707;28;20244;-75
2020/12/10 07:53:08;;;;;;;39.47;16.65;;;2.40;94.40;;;;;;5013605;28;20220;-72
2020/12/10 07:55:37;;;;;;;39.75;16.90;;;2.50;94.30;;;;;;5024833;28;20185;-73
2020/12/10 07:58:16;;;;;;;52.75;20.38;;;2.60;94.30;;;;;;5026697;28;20239;-72
2020/12/10 08:00:45;;;;;;;45.58;17.88;;;2.60;94.50;;;;;;5012777;28;20201;-73
2020/12/10 08:03:37;;;;;;;45.70;18.08;;;2.70;94.40;;;;;;5012874;28;20189;-73
2020/12/10 08:06:10;;;;;;;49.38;18.02;;;2.80;94.30;;;;;;5011872;28;20691;-74
2020/12/10 08:08:41;;;;;;;40.80;17.15;;;2.80;93.90;;;;;;5013120;28;20192;-73
2020/12/10 08:11:19;;;;;;;44.80;18.05;;;2.90;93.50;;;;;;5014133;28;20677;-73
2020/12/10 08:14:05;;;;;;;43.67;17.35;;;2.80;93.30;;;;;;5013063;28;20194;-72
2020/12/10 08:16:42;;;;;;;38.03;15.80;;;2.80;93.10;;;;;;5015091;28;20196;-73
2020/12/10 08:19:21;;;;;;;45.90;16.85;;;2.70;93.30;;;;;;5015423;28;20608;-74
2020/12/10 08:21:51;;;;;;;36.20;16.33;;;2.80;93.30;;;;;;5029423;28;20288;-74
2020/12/10 08:24:43;;;;;;;44.60;17.52;;;2.80;93.10;;;;;;5016514;28;20213;-75
2020/12/10 08:27:11;;;;;;;45.08;16.58;;;2.70;92.90;;;;;;5029834;28;20381;-75
2020/12/10 08:29:37;;;;;;;42.10;17.42;;;2.70;93.10;;;;;;5031212;28;20271;-74
2020/12/10 08:32:11;;;;;;;45.03;17.07;;;2.70;93.10;;;;;;5031983;28;20668;-75
2020/12/10 08:34:37;;;;;;;44.65;17.58;;;2.70;93.10;;;;;;5033791;28;20215;-75
2020/12/10 08:37:10;;;;;;;45.20;17.20;;;2.70;93.10;;;;;;5033302;28;20211;-76
2020/12/10 08:39:39;;;;;;;47.53;18.23;;;2.70;93.10;;;;;;5037195;28;20227;-75
2020/12/10 08:42:05;;;;;;;37.92;16.23;;;2.70;93.10;;;;;;5050412;28;20189;-75
2020/12/10 08:44:48;;;;;;;44.05;17.50;;;2.70;93.40;;;;;;5046434;28;20197;-75
2020/12/10 08:47:31;;;;;;;42.50;17.05;;;2.70;93.50;;;;;;5020948;28;20186;-74
2020/12/10 08:50:23;;;;;;;37.65;15.95;;;2.70;93.60;;;;;;5020802;28;20204;-75
2020/12/10 08:52:50;;;;;;;46.75;15.20;;;2.80;93.00;;;;;;5026224;28;20217;-76
2020/12/10 08:55:16;;;;;;;36.67;15.63;;;2.80;92.60;;;;;;5011783;28;20359;-75
2020/12/10 08:57:51;;;;;;;32.33;15.10;;;2.90;92.30;;;;;;5012373;28;20273;-77
2020/12/10 09:00:17;;;;;;;31.25;12.88;;;2.90;92.30;;;;;;5012429;28;20672;-76
2020/12/10 09:02:43;;;;;;;40.35;14.70;;;3.00;92.20;;;;;;5044366;28;20198;-74
2020/12/10 09:05:09;;;;;;;29.80;14.27;;;3.00;91.60;;;;;;5011696;28;20544;-73
2020/12/10 09:07:35;;;;;;;28.48;11.00;;;3.00;91.50;;;;;;5011700;28;20185;-75
2020/12/10 09:10:04;;;;;;;25.67;11.13;;;3.10;90.80;;;;;;5011800;28;20680;-74
2020/12/10 09:12:30;;;;;;;23.98;10.07;;;3.00;88.40;;;;;;5012213;28;20676;-75
2020/12/10 09:14:56;;;;;;;26.20;10.10;;;2.90;88.10;;;;;;5017580;28;20217;-75
2020/12/10 09:17:22;;;;;;;22.53;10.30;;;2.80;88.90;;;;;;5021948;28;20499;-74
2020/12/10 09:19:47;;;;;;;23.63;9.67;;;2.90;89.20;;;;;;5011735;28;20285;-75
2020/12/10 09:22:13;;;;;;;22.87;9.90;;;2.90;89.20;;;;;;5011618;28;20572;-74
2020/12/10 09:24:39;;;;;;;24.47;10.57;;;2.80;89.00;;;;;;5011296;28;20185;-74
2020/12/10 09:27:07;;;;;;;26.00;10.60;;;2.80;89.20;;;;;;5026348;28;20200;-74
2020/12/10 09:29:36;;;;;;;22.55;10.65;;;2.80;88.90;;;;;;5031102;28;20201;-75
2020/12/10 09:32:03;;;;;;;31.20;13.35;;;2.80;88.70;;;;;;5031233;28;20283;-76
2020/12/10 09:34:30;;;;;;;24.17;9.63;;;2.90;88.90;;;;;;5029858;28;20185;-74
2020/12/10 09:36:57;;;;;;;20.60;8.90;;;3.00;88.60;;;;;;5030863;28;20185;-74
2020/12/10 09:39:23;;;;;;;21.48;8.35;;;3.00;88.10;;;;;;5031207;28;20188;-74
2020/12/10 09:41:49;;;;;;;18.10;7.17;;;3.10;88.00;;;;;;5029843;28;20197;-75
2020/12/10 09:44:15;;;;;;;20.20;8.07;;;3.10;86.00;;;;;;5032845;28;20205;-74
2020/12/10 09:46:41;;;;;;;22.23;9.33;;;3.20;85.90;;;;;;5031148;28;20185;-75
2020/12/10 09:49:07;;;;;;;19.23;8.30;;;3.20;85.60;;;;;;5030724;28;20189;-75
2020/12/10 09:51:39;;;;;;;19.40;8.30;;;3.30;85.60;;;;;;5030843;28;20580;-75
2020/12/10 09:54:16;;;;;;;17.75;8.32;;;3.40;85.00;;;;;;5030825;28;20188;-72
2020/12/10 09:59:07;;;;;;;17.67;8.70;;;3.60;85.00;;;;;;5010840;28;20196;-76
2020/12/10 10:01:33;;;;;;;19.73;9.70;;;3.70;85.70;;;;;;5009942;28;20263;-76
2020/12/10 10:03:59;;;;;;;20.30;9.27;;;3.80;85.00;;;;;;5011037;28;20197;-75
2020/12/10 10:06:25;;;;;;;20.07;8.63;;;3.80;83.80;;;;;;5010613;28;20185;-75
2020/12/10 10:08:50;;;;;;;20.80;9.20;;;3.80;83.40;;;;;;5011500;28;20659;-76
2020/12/10 10:11:16;;;;;;;17.60;7.90;;;3.70;83.80;;;;;;5010411;28;20236;-76
2020/12/10 10:13:42;;;;;;;18.50;7.77;;;3.70;84.30;;;;;;5011268;28;20239;-76
2020/12/10 10:16:08;;;;;;;20.47;8.17;;;3.60;82.70;;;;;;5019143;28;20213;-76
2020/12/10 10:18:33;;;;;;;18.87;8.43;;;3.60;83.60;;;;;;5030160;28;20194;-76
2020/12/10 10:21:01;;;;;;;24.83;9.90;;;3.60;84.60;;;;;;5011276;28;20724;-76
2020/12/10 10:23:27;;;;;;;19.67;8.82;;;3.50;84.60;;;;;;5011188;28;20189;-74
2020/12/10 10:25:52;;;;;;;22.67;9.47;;;3.40;85.30;;;;;;5016280;28;20189;-74
2020/12/10 10:28:19;;;;;;;24.07;9.47;;;3.50;86.00;;;;;;5030804;28;20185;-76
2020/12/10 10:30:45;;;;;;;24.52;9.65;;;3.50;85.90;;;;;;5030961;28;20200;-74
2020/12/10 10:33:11;;;;;;;24.40;10.77;;;3.60;86.50;;;;;;5033158;28;20258;-75
2020/12/10 10:35:36;;;;;;;23.77;10.50;;;3.60;86.00;;;;;;5030573;28;20231;-76
2020/12/10 10:38:02;;;;;;;19.47;9.57;;;3.70;85.60;;;;;;5030906;28;20661;-74
2020/12/10 10:40:31;;;;;;;21.53;9.60;;;3.80;84.60;;;;;;5030716;28;20543;-76
2020/12/10 10:42:57;;;;;;;26.73;11.20;;;3.70;84.10;;;;;;5030695;28;20196;-75
2020/12/10 10:45:22;;;;;;;28.03;12.17;;;3.70;84.60;;;;;;5029995;28;20864;-76
2020/12/10 10:47:48;;;;;;;20.27;10.10;;;3.80;84.70;;;;;;5030696;28;20630;-74
2020/12/10 10:50:14;;;;;;;20.90;11.07;;;3.70;84.30;;;;;;5030850;28;20475;-74
2020/12/10 10:52:41;;;;;;;22.63;10.73;;;3.70;84.30;;;;;;5029385;28;20475;-76
2020/12/10 10:55:07;;;;;;;30.13;12.45;;;3.70;85.20;;;;;;5029984;28;20181;-76
2020/12/10 10:57:33;;;;;;;29.23;11.67;;;3.70;85.50;;;;;;5030319;28;20211;-75
2020/12/10 10:59:58;;;;;;;27.87;12.27;;;3.70;85.60;;;;;;5030596;28;20259;-74
2020/12/10 11:02:24;;;;;;;29.53;13.03;;;3.70;86.00;;;;;;5032960;28;20189;-74
2020/12/10 11:04:51;;;;;;;22.80;10.50;;;3.70;86.30;;;;;;5032675;28;20198;-74
2020/12/10 11:07:17;;;;;;;26.98;12.10;;;3.70;86.20;;;;;;5033942;28;20242;-73
2020/12/10 11:09:43;;;;;;;26.47;11.63;;;3.70;86.30;;;;;;5034461;28;20279;-74
2020/12/10 11:12:09;;;;;;;25.50;11.67;;;3.70;86.30;;;;;;5032867;28;20209;-75
2020/12/10 11:14:35;;;;;;;25.55;10.60;;;3.70;86.30;;;;;;5031428;28;20189;-75
2020/12/10 11:17:01;;;;;;;25.97;10.07;;;3.70;85.90;;;;;;5035372;28;20228;-74
2020/12/10 11:19:28;;;;;;;26.73;10.73;;;3.60;85.90;;;;;;5034721;28;20226;-75
2020/12/10 11:21:54;;;;;;;25.48;10.57;;;3.40;86.20;;;;;;5034686;28;20990;-75
2020/12/10 11:24:19;;;;;;;28.03;10.97;;;3.40;87.00;;;;;;5033913;28;20283;-75
2020/12/10 11:26:51;;;;;;;20.63;9.93;;;3.50;87.70;;;;;;5032513;28;20220;-76
2020/12/10 11:29:16;;;;;;;27.42;13.10;;;3.50;87.80;;;;;;5033825;28;20193;-76
2020/12/10 11:31:42;;;;;;;31.60;12.53;;;3.60;87.70;;;;;;5034029;28;20203;-76
2020/12/10 11:34:08;;;;;;;28.77;13.07;;;3.70;87.60;;;;;;5034071;28;20256;-74
2020/12/10 11:36:34;;;;;;;31.53;13.47;;;3.70;87.60;;;;;;5032567;28;20185;-75
2020/12/10 11:38:59;;;;;;;24.70;11.43;;;3.80;87.60;;;;;;5034218;28;20652;-76
2020/12/10 11:41:25;;;;;;;26.37;11.70;;;3.80;87.10;;;;;;5034991;28;20205;-75
2020/12/10 11:43:51;;;;;;;25.53;11.00;;;3.90;87.10;;;;;;5034975;28;20276;-74
2020/12/10 11:46:17;;;;;;;29.57;12.93;;;3.90;86.90;;;;;;5034564;28;20196;-75
2020/12/10 11:48:43;;;;;;;27.87;11.43;;;3.90;86.20;;;;;;5035835;28;20416;-75
2020/12/10 11:51:08;;;;;;;29.63;12.40;;;3.90;86.20;;;;;;5034793;28;20209;-76
2020/12/10 11:53:35;;;;;;;32.00;12.50;;;3.90;86.60;;;;;;5034152;28;20898;-76
2020/12/10 11:56:01;;;;;;;26.15;11.70;;;3.90;86.80;;;;;;5033569;28;20177;-77
2020/12/10 11:58:28;;;;;;;25.80;11.20;;;3.80;86.50;;;;;;5034037;28;20181;-75
2020/12/10 12:00:54;;;;;;;30.00;12.27;;;3.80;86.80;;;;;;5033493;28;20209;-75
2020/12/10 12:03:19;;;;;;;31.67;12.37;;;3.90;86.60;;;;;;5033237;28;20212;-74
2020/12/10 12:05:45;;;;;;;30.77;12.47;;;4.00;86.50;;;;;;5031683;28;20200;-76
2020/12/10 12:08:11;;;;;;;32.20;12.80;;;4.00;86.30;;;;;;5033815;28;20420;-75
2020/12/10 12:10:38;;;;;;;31.57;12.77;;;4.00;86.20;;;;;;5032337;28;20619;-76
2020/12/10 12:13:03;;;;;;;28.92;12.50;;;3.90;86.20;;;;;;5033028;28;20270;-76
2020/12/10 12:15:29;;;;;;;35.33;13.90;;;3.90;86.60;;;;;;5031550;28;20551;-76
2020/12/10 12:17:55;;;;;;;27.03;12.80;;;4.00;87.10;;;;;;5033918;28;20177;-76
2020/12/10 12:20:24;;;;;;;35.17;12.20;;;4.00;86.60;;;;;;5033889;28;20923;-76
2020/12/10 12:22:51;;;;;;;35.97;13.65;;;4.00;85.90;;;;;;5034519;28;20185;-76
2020/12/10 12:25:17;;;;;;;31.15;12.48;;;3.90;85.30;;;;;;5035194;28;20189;-76
2020/12/10 12:27:43;;;;;;;32.60;14.23;;;3.80;85.70;;;;;;5036733;28;20211;-75
2020/12/10 12:30:08;;;;;;;28.23;12.60;;;3.80;86.30;;;;;;5034323;28;20205;-75
2020/12/10 12:32:34;;;;;;;32.17;13.60;;;3.80;86.20;;;;;;5036145;28;20719;-76
2020/12/10 12:35:00;;;;;;;32.87;13.50;;;3.80;86.30;;;;;;5023085;28;20194;-74
2020/12/10 12:37:27;;;;;;;28.70;13.20;;;3.90;86.50;;;;;;5024045;28;20193;-75
2020/12/10 12:39:53;;;;;;;30.02;13.40;;;3.90;86.50;;;;;;5016903;28;20821;-75
2020/12/10 12:42:19;;;;;;;26.73;11.48;;;3.90;86.60;;;;;;5012815;28;20200;-75
2020/12/10 12:44:44;;;;;;;31.80;12.40;;;4.00;86.60;;;;;;5012496;28;20269;-75